createdAt,value
2019-01-14T00:01:09.528Z,98063.82
2019-01-14T00:03:40.345Z,98067.52
2019-01-14T00:06:11.146Z,98065.07
2019-01-14T00:08:43.899Z,98072.37
2019-01-14T00:11:16.738Z,98076.08
2019-01-14T00:13:50.664Z,98088.98
2019-01-14T00:16:24.471Z,98109.66
2019-01-14T00:18:55.283Z,98097.17
2019-01-14T00:21:26.134Z,98111.44
2019-01-14T00:23:56.941Z,98100.75
2019-01-14T00:26:27.792Z,98108.36
2019-01-14T00:28:58.732Z,98111.31
2019-01-14T00:31:29.754Z,98113.36
2019-01-14T00:34:00.898Z,98113.74
2019-01-14T00:36:31.824Z,98116.55
2019-01-14T00:39:02.919Z,98117.35
2019-01-14T00:41:33.762Z,98113.20
2019-01-14T00:44:04.726Z,98122.27
2019-01-14T00:46:35.664Z,98125.63
2019-01-14T00:49:06.862Z,98137.97
2019-01-14T00:51:37.805Z,98175.18
2019-01-14T00:54:10.686Z,98202.02
2019-01-14T00:56:41.630Z,98203.02
2019-01-14T00:59:12.551Z,98170.97
2019-01-14T01:01:43.405Z,98182.53
2019-01-14T01:04:14.238Z,98193.54
2019-01-14T01:06:47.903Z,98189.57
2019-01-14T01:09:18.762Z,98192.41
2019-01-14T01:11:52.040Z,98198.41
2019-01-14T01:14:26.086Z,98198.98
2019-01-14T01:16:58.872Z,98212.27
2019-01-14T01:19:29.669Z,98202.81
2019-01-14T01:22:05.957Z,98221.36
2019-01-14T01:24:39.329Z,98220.27
2019-01-14T01:27:11.729Z,98226.31
2019-01-14T01:29:42.642Z,98229.80
2019-01-14T01:32:16.701Z,98243.92
2019-01-14T01:34:47.671Z,98271.28
2019-01-14T01:37:18.621Z,98279.02
2019-01-14T01:39:49.525Z,98277.27
2019-01-14T01:42:20.477Z,98279.52
2019-01-14T01:44:51.329Z,98279.44
2019-01-14T01:47:22.568Z,98279.02
2019-01-14T01:49:56.373Z,98291.09
2019-01-14T01:52:33.568Z,98301.52
2019-01-14T01:55:04.842Z,98298.91
2019-01-14T01:57:35.782Z,98307.30
2019-01-14T02:00:14.429Z,98323.70
2019-01-14T02:02:51.429Z,98328.35
2019-01-14T02:05:22.914Z,98345.39
2019-01-14T02:07:55.553Z,98338.25
2019-01-14T02:10:27.561Z,98332.82
2019-01-14T02:12:58.397Z,98342.31
2019-01-14T02:15:30.899Z,98356.00
2019-01-14T02:18:03.177Z,98350.85
2019-01-14T02:20:34.152Z,98358.22
2019-01-14T02:23:07.941Z,98360.11
2019-01-14T02:25:38.857Z,98359.52
2019-01-14T02:28:12.837Z,98369.56
2019-01-14T02:30:43.759Z,98373.95
2019-01-14T02:33:18.587Z,98374.35
2019-01-14T02:35:49.526Z,98379.50
2019-01-14T02:38:26.480Z,98398.67
2019-01-14T02:40:57.406Z,98393.37
2019-01-14T02:43:30.665Z,98402.30
2019-01-14T02:46:01.488Z,98410.11
2019-01-14T02:48:32.345Z,98412.11
2019-01-14T02:51:03.251Z,98423.86
2019-01-14T02:53:39.112Z,98429.10
2019-01-14T02:56:09.680Z,98437.42
2019-01-14T02:58:42.926Z,98441.31
2019-01-14T03:01:13.808Z,98441.36
2019-01-14T03:03:47.203Z,98455.02
2019-01-14T03:06:20.260Z,98466.77
2019-01-14T03:08:51.221Z,98469.08
2019-01-14T03:11:22.064Z,98483.46
2019-01-14T03:13:53.008Z,98496.34
2019-01-14T03:16:23.805Z,98479.05
2019-01-14T03:18:54.967Z,98497.55
2019-01-14T03:21:27.133Z,98498.61
2019-01-14T03:23:57.978Z,98512.66
2019-01-14T03:26:28.848Z,98496.08
2019-01-14T03:28:59.774Z,98524.91
2019-01-14T03:31:30.614Z,98521.39
2019-01-14T03:34:01.390Z,98560.39
2019-01-14T03:36:35.180Z,98532.58
2019-01-14T03:39:08.450Z,98541.13
2019-01-14T03:41:39.299Z,98548.17
2019-01-14T03:44:10.181Z,98567.80
2019-01-14T03:46:46.113Z,98575.50
2019-01-14T03:49:18.076Z,98587.58
2019-01-14T03:51:48.940Z,98565.42
2019-01-14T03:54:19.856Z,98599.83
2019-01-14T03:56:50.772Z,98598.52
2019-01-14T03:59:21.762Z,98602.78
2019-01-14T04:01:52.606Z,98597.70
2019-01-14T04:04:23.540Z,98602.73
2019-01-14T04:06:54.356Z,98614.45
2019-01-14T04:09:27.891Z,98626.66
2019-01-14T04:12:00.196Z,98630.59
2019-01-14T04:14:32.587Z,98645.58
2019-01-14T04:17:03.468Z,98651.61
2019-01-14T04:19:37.274Z,98649.02
2019-01-14T04:22:08.460Z,98671.23
2019-01-14T04:24:39.220Z,98660.45
2019-01-14T04:27:10.120Z,98679.66
2019-01-14T04:29:41.000Z,98683.14
2019-01-14T04:32:11.940Z,98681.98
2019-01-14T04:34:42.936Z,98685.95
2019-01-14T04:37:21.484Z,98700.90
2019-01-14T04:39:49.159Z,98711.91
2019-01-14T04:42:22.227Z,98719.80
2019-01-14T04:48:00.232Z,98712.05
2019-01-14T04:50:31.250Z,98736.64
2019-01-14T04:53:02.374Z,98729.69
2019-01-14T04:55:33.840Z,98732.89
2019-01-14T04:58:05.190Z,98725.97
2019-01-14T05:00:36.088Z,98743.03
2019-01-14T05:03:07.188Z,98738.70
2019-01-14T05:05:40.173Z,98740.90
2019-01-14T05:08:11.063Z,98748.21
2019-01-14T05:10:45.015Z,98758.97
2019-01-14T05:13:16.214Z,98750.90
2019-01-14T05:15:47.279Z,98770.12
2019-01-14T05:18:18.499Z,98754.41
2019-01-14T05:20:49.828Z,98785.80
2019-01-14T05:23:20.951Z,98779.61
2019-01-14T05:25:51.816Z,98790.28
2019-01-14T05:28:22.982Z,98796.72
2019-01-14T05:30:54.023Z,98803.86
2019-01-14T05:33:25.141Z,98814.14
2019-01-14T05:35:56.148Z,98820.80
2019-01-14T05:38:27.007Z,98819.28
2019-01-14T05:40:57.783Z,98823.57
2019-01-14T05:43:31.686Z,98834.34
2019-01-14T05:46:02.381Z,98839.33
2019-01-14T05:48:33.252Z,98846.91
2019-01-14T05:51:04.068Z,98855.09
2019-01-14T05:53:34.801Z,98876.52
2019-01-14T05:56:05.741Z,98875.50
2019-01-14T05:58:36.561Z,98880.33
2019-01-14T06:01:07.373Z,98887.13
2019-01-14T06:03:40.199Z,98893.00
2019-01-14T06:06:11.031Z,98898.45
2019-01-14T06:08:41.871Z,98904.78
2019-01-14T06:11:12.709Z,98896.66
2019-01-14T06:13:43.553Z,98912.80
2019-01-14T06:16:14.478Z,98926.30
2019-01-14T06:18:45.257Z,98917.27
2019-01-14T06:21:16.199Z,98906.56
2019-01-14T06:23:46.982Z,98927.64
2019-01-14T06:26:17.799Z,98927.05
2019-01-14T06:29:11.735Z,98933.91
2019-01-14T06:31:42.591Z,98932.55
2019-01-14T06:34:13.355Z,98926.94
2019-01-14T06:36:44.136Z,98934.70
2019-01-14T06:39:14.987Z,98943.03
2019-01-14T06:41:45.819Z,98934.77
2019-01-14T06:44:16.599Z,98950.94
2019-01-14T06:46:47.355Z,98962.86
2019-01-14T06:49:18.339Z,98967.92
2019-01-14T06:51:49.107Z,98966.05
2019-01-14T06:54:19.861Z,98974.01
2019-01-14T06:56:50.665Z,98984.80
2019-01-14T06:59:21.476Z,98994.28
2019-01-14T07:01:52.231Z,98990.55
2019-01-14T07:04:22.989Z,98995.38
2019-01-14T07:06:53.715Z,98997.91
2019-01-14T07:09:24.543Z,98996.95
2019-01-14T07:11:55.363Z,98992.08
2019-01-14T07:14:26.151Z,98992.30
2019-01-14T07:16:56.907Z,98999.84
2019-01-14T07:19:27.785Z,99004.19
2019-01-14T07:21:58.597Z,99009.55
2019-01-14T07:24:29.449Z,99013.52
2019-01-14T07:27:00.208Z,99018.28
2019-01-14T07:29:31.006Z,99017.42
2019-01-14T07:32:01.749Z,99024.28
2019-01-14T07:34:32.563Z,99023.33
2019-01-14T07:37:03.597Z,99033.80
2019-01-14T07:39:34.373Z,99036.42
2019-01-14T07:42:05.206Z,99040.75
2019-01-14T07:44:36.002Z,99042.95
2019-01-14T07:47:06.892Z,99052.86
2019-01-14T07:49:37.668Z,99050.58
2019-01-14T07:52:08.381Z,99050.44
2019-01-14T07:54:39.191Z,99056.36
2019-01-14T07:57:09.939Z,99058.97
2019-01-14T07:59:40.794Z,99058.97
2019-01-14T08:02:11.610Z,99071.38
2019-01-14T08:04:42.446Z,99069.07
2019-01-14T08:07:13.305Z,99071.61
2019-01-14T08:09:44.098Z,99077.19
2019-01-14T08:12:14.885Z,99081.13
2019-01-14T08:14:45.666Z,99084.15
2019-01-14T08:17:16.418Z,99092.86
2019-01-14T08:19:47.234Z,99104.18
2019-01-14T08:22:18.077Z,99105.40
2019-01-14T08:24:48.846Z,99106.20
2019-01-14T08:27:19.607Z,99113.65
2019-01-14T08:29:50.350Z,99159.41
2019-01-14T08:32:21.170Z,99147.75
2019-01-14T08:34:51.966Z,99142.14
2019-01-14T08:37:22.717Z,99148.33
2019-01-14T08:39:53.517Z,99150.11
2019-01-14T08:42:24.457Z,99152.27
2019-01-14T08:44:55.518Z,99153.69
2019-01-14T08:47:26.306Z,99155.11
2019-01-14T08:49:57.120Z,99176.44
2019-01-14T08:52:27.940Z,99166.00
2019-01-14T08:54:58.714Z,99175.92
2019-01-14T08:57:29.485Z,99183.63
2019-01-14T09:00:00.239Z,99177.98
2019-01-14T09:02:31.050Z,99204.55
2019-01-14T09:05:01.819Z,99204.50
2019-01-14T09:07:32.576Z,99204.06
2019-01-14T09:10:03.622Z,99203.13
2019-01-14T09:12:36.794Z,99207.57
2019-01-14T09:15:12.778Z,99201.84
2019-01-14T09:17:43.766Z,99210.59
2019-01-14T09:20:22.080Z,99207.51
2019-01-14T09:22:56.093Z,99208.73
2019-01-14T09:25:30.284Z,99217.80
2019-01-14T09:28:04.387Z,99213.98
2019-01-14T09:30:37.718Z,99214.32
2019-01-14T09:33:08.608Z,99217.75
2019-01-14T09:35:42.436Z,99230.20
2019-01-14T09:38:13.351Z,99219.39
2019-01-14T09:40:45.943Z,99221.48
2019-01-14T09:43:16.761Z,99224.37
2019-01-14T09:45:47.584Z,99224.48
2019-01-14T09:48:18.533Z,99233.21
2019-01-14T09:50:49.349Z,99236.23
2019-01-14T09:53:20.205Z,99226.30
2019-01-14T09:55:51.121Z,99228.05
2019-01-14T09:58:21.945Z,99228.54
2019-01-14T10:00:55.253Z,99232.07
2019-01-14T10:03:26.140Z,99233.59
2019-01-14T10:05:56.938Z,99225.45
2019-01-14T10:08:27.673Z,99239.81
2019-01-14T10:10:58.474Z,99240.41
2019-01-14T10:13:34.503Z,99248.37
2019-01-14T10:16:05.340Z,99250.92
2019-01-14T10:18:36.378Z,99248.66
2019-01-14T10:21:07.170Z,99253.78
2019-01-14T10:23:37.984Z,99239.72
2019-01-14T10:26:09.589Z,99233.29
2019-01-14T10:28:44.529Z,99249.49
2019-01-14T10:31:19.925Z,99235.55
2019-01-14T10:33:50.481Z,99238.55
2019-01-14T10:36:21.217Z,99265.20
2019-01-14T10:38:52.101Z,99238.23
2019-01-14T10:41:22.989Z,99246.47
2019-01-14T10:43:53.749Z,99236.33
2019-01-14T10:46:30.602Z,99239.28
2019-01-14T10:49:06.853Z,99240.11
2019-01-14T10:51:35.715Z,99250.93
2019-01-14T10:54:18.026Z,99244.58
2019-01-14T10:56:52.007Z,99240.70
2019-01-14T10:59:22.785Z,99251.13
2019-01-14T11:01:56.213Z,99256.83
2019-01-14T11:04:28.856Z,99236.42
2019-01-14T11:06:59.615Z,99237.53
2019-01-14T11:09:30.421Z,99240.36
2019-01-14T11:12:01.188Z,99248.22
2019-01-14T11:14:39.403Z,99236.88
2019-01-14T11:17:10.276Z,99254.71
2019-01-14T11:19:42.377Z,99242.05
2019-01-14T11:22:13.289Z,99250.28
2019-01-14T11:24:50.523Z,99261.53
2019-01-14T11:27:23.762Z,99256.23
2019-01-14T11:29:56.081Z,99253.16
2019-01-14T11:32:26.876Z,99248.95
2019-01-14T11:34:57.823Z,99250.72
2019-01-14T11:37:28.682Z,99245.45
2019-01-14T11:39:59.543Z,99261.61
2019-01-14T11:42:30.677Z,99255.41
2019-01-14T11:45:01.530Z,99245.75
2019-01-14T11:47:32.501Z,99259.13
2019-01-14T11:50:03.449Z,99249.75
2019-01-14T11:52:38.865Z,99256.23
2019-01-14T11:55:19.920Z,99244.61
2019-01-14T11:57:52.057Z,99264.57
2019-01-14T12:00:27.410Z,99252.37
2019-01-14T12:03:00.089Z,99257.21
2019-01-14T12:05:31.060Z,99273.45
2019-01-14T12:08:01.865Z,99258.97
2019-01-14T12:10:32.863Z,99276.81
2019-01-14T12:13:03.822Z,99272.39
2019-01-14T12:15:36.968Z,99266.41
2019-01-14T12:18:08.041Z,99253.48
2019-01-14T12:20:39.015Z,99269.90
2019-01-14T12:23:09.954Z,99275.06
2019-01-14T12:25:40.866Z,99264.78
2019-01-14T12:28:17.548Z,99267.30
2019-01-14T12:30:48.493Z,99273.01
2019-01-14T12:33:19.319Z,99281.09
2019-01-14T12:35:51.769Z,99289.55
2019-01-14T12:38:22.614Z,99281.28
2019-01-14T12:40:53.454Z,99290.45
2019-01-14T12:43:24.282Z,99289.00
2019-01-14T12:45:55.180Z,99296.67
2019-01-14T12:48:26.020Z,99292.42
2019-01-14T12:50:56.895Z,99291.56
2019-01-14T12:53:27.809Z,99301.69
2019-01-14T12:55:58.772Z,99300.55
2019-01-14T12:58:29.595Z,99319.84
2019-01-14T13:01:00.404Z,99313.86
2019-01-14T13:03:31.276Z,99320.07
2019-01-14T13:06:02.200Z,99319.20
2019-01-14T13:08:33.082Z,99340.13
2019-01-14T13:11:04.004Z,99350.84
2019-01-14T13:13:34.840Z,99337.86
2019-01-14T13:18:48.377Z,99355.98
2019-01-14T13:21:22.202Z,99344.73
2019-01-14T13:23:53.048Z,99352.88
2019-01-14T13:26:23.963Z,99353.08
2019-01-14T13:28:54.789Z,99351.03
2019-01-14T13:31:25.734Z,99354.99
2019-01-14T13:33:56.516Z,99354.11
2019-01-14T13:36:27.328Z,99347.13
2019-01-14T13:38:58.229Z,99355.33
2019-01-14T13:41:29.020Z,99350.45
2019-01-14T13:43:59.904Z,99346.89
2019-01-14T13:46:30.762Z,99351.15
2019-01-14T13:49:01.591Z,99340.67
2019-01-14T13:51:32.363Z,99355.48
2019-01-14T13:54:03.184Z,99361.13
2019-01-14T13:56:33.962Z,99355.48
2019-01-14T13:59:04.932Z,99360.28
2019-01-14T14:01:35.724Z,99357.21
2019-01-14T14:04:06.980Z,99366.72
2019-01-14T14:06:44.097Z,99365.34
2019-01-14T14:09:26.443Z,99368.03
2019-01-14T14:12:15.826Z,99375.02
2019-01-14T14:15:05.494Z,99383.71
2019-01-14T14:17:40.284Z,99386.41
2019-01-14T14:20:38.959Z,99433.45
2019-01-14T14:22:57.402Z,99460.98
2019-01-14T14:25:28.757Z,99512.77
2019-01-14T14:28:00.472Z,99541.27
2019-01-14T14:30:51.113Z,99546.64
2019-01-14T14:33:26.411Z,99545.30
2019-01-14T14:35:57.483Z,99532.25
2019-01-14T14:38:28.713Z,99540.92
2019-01-14T14:41:00.112Z,99575.58
2019-01-14T14:43:34.233Z,99560.44
2019-01-14T14:46:05.478Z,99540.56
2019-01-14T14:48:37.946Z,99574.44
2019-01-14T14:51:08.843Z,99532.88
2019-01-14T14:53:39.795Z,99552.02
2019-01-14T14:56:10.855Z,99561.63
2019-01-14T14:58:41.947Z,99575.98
2019-01-14T15:01:13.041Z,99580.80
2019-01-14T15:03:43.966Z,99599.03
2019-01-14T15:06:14.892Z,99612.80
2019-01-14T15:08:45.801Z,99619.17
2019-01-14T15:11:16.827Z,99611.67
2019-01-14T15:13:47.651Z,99612.89
2019-01-14T15:16:20.995Z,99601.18
2019-01-14T15:18:51.111Z,99618.08
2019-01-14T15:21:22.081Z,99609.39
2019-01-14T15:23:52.876Z,99624.12
2019-01-14T15:26:23.643Z,99635.86
2019-01-14T15:28:54.632Z,99636.75
2019-01-14T15:31:25.445Z,99639.79
2019-01-14T15:33:56.271Z,99652.79
2019-01-14T15:36:27.119Z,99645.91
2019-01-14T15:38:58.087Z,99661.95
2019-01-14T15:41:29.076Z,99659.82
2019-01-14T15:44:02.171Z,99663.23
2019-01-14T15:46:33.131Z,99671.86
2019-01-14T15:49:03.871Z,99680.97
2019-01-14T15:51:34.723Z,99684.47
2019-01-14T15:54:05.619Z,99689.25
2019-01-14T15:56:36.495Z,99695.75
2019-01-14T15:59:09.202Z,99697.97
2019-01-14T16:01:40.327Z,99699.74
2019-01-14T16:04:11.242Z,99698.92
2019-01-14T16:06:41.998Z,99712.83
2019-01-14T16:09:12.784Z,99727.12
2019-01-14T16:11:43.533Z,99725.42
2019-01-14T16:14:17.245Z,99724.38
2019-01-14T16:16:49.086Z,99728.31
2019-01-14T16:19:21.550Z,99734.05
2019-01-14T16:21:52.352Z,99738.56
2019-01-14T16:24:25.658Z,99745.50
2019-01-14T16:26:56.470Z,99748.11
2019-01-14T16:29:27.481Z,99750.25
2019-01-14T16:31:58.459Z,99761.56
2019-01-14T16:34:29.250Z,99753.34
2019-01-14T16:37:02.862Z,99752.45
2019-01-14T16:39:35.904Z,99768.16
2019-01-14T16:42:09.974Z,99766.45
2019-01-14T16:44:40.815Z,99774.28
2019-01-14T16:47:11.721Z,99772.41
2019-01-14T16:49:42.685Z,99779.20
2019-01-14T16:52:13.703Z,99781.33
2019-01-14T16:54:44.678Z,99793.03
2019-01-14T16:57:15.546Z,99789.08
2019-01-14T16:59:46.422Z,99787.73
2019-01-14T17:02:19.232Z,99797.72
2019-01-14T17:04:49.978Z,99795.50
2019-01-14T17:07:23.694Z,99812.89
2019-01-14T17:09:54.589Z,99797.69
2019-01-14T17:12:25.825Z,99814.16
2019-01-14T17:14:56.843Z,99814.53
2019-01-14T17:17:27.870Z,99821.45
2019-01-14T17:19:58.658Z,99821.41
2019-01-14T17:22:29.601Z,99825.77
2019-01-14T17:25:00.671Z,99837.02
2019-01-14T17:27:31.629Z,99838.28
2019-01-14T17:30:02.568Z,99836.17
2019-01-14T17:32:36.414Z,99849.10
2019-01-14T17:35:07.982Z,99850.84
2019-01-14T17:37:39.270Z,99864.34
2019-01-14T17:40:14.114Z,99859.88
2019-01-14T17:42:45.320Z,99864.73
2019-01-14T17:45:24.664Z,99871.64
2019-01-14T17:47:58.659Z,99879.76
2019-01-14T17:50:34.378Z,99886.73
2019-01-14T18:07:29.981Z,99914.43
2019-01-14T18:10:02.645Z,99920.64
2019-01-14T18:12:35.540Z,99927.95
2019-01-14T18:15:17.897Z,99924.86
2019-01-14T18:17:56.626Z,99929.95
2019-01-14T18:20:30.858Z,99934.28
2019-01-14T18:23:12.380Z,99942.19
2019-01-14T18:25:39.863Z,99944.27
2019-01-14T18:28:13.483Z,99930.48
2019-01-14T18:31:31.742Z,99953.06
2019-01-14T18:54:16.341Z,99974.30
2019-01-14T18:56:49.422Z,99986.86
2019-01-14T18:59:24.274Z,99985.94
2019-01-14T19:02:04.717Z,99989.89
2019-01-14T19:04:37.660Z,99997.69
2019-01-14T19:07:11.099Z,99992.83
2019-01-14T19:09:42.183Z,100000.66
2019-01-14T19:12:16.858Z,100000.67
2019-01-14T19:14:47.573Z,100004.23
2019-01-14T19:17:24.685Z,100008.97
2019-01-14T19:19:59.293Z,100003.34
2019-01-14T19:22:31.709Z,100014.15
2019-01-14T19:25:02.788Z,100017.67
2019-01-14T19:27:47.977Z,100021.93
2019-01-14T19:30:27.544Z,100022.38
2019-01-14T19:32:59.037Z,100028.44
2019-01-14T19:35:45.418Z,100026.52
2019-01-14T19:38:39.349Z,100029.98
2019-01-14T19:40:51.910Z,100041.01
2019-01-14T19:43:33.316Z,100052.17
2019-01-14T19:46:09.171Z,100045.72
2019-01-14T19:48:41.629Z,100051.38
2019-01-14T19:51:16.448Z,100052.55
2019-01-14T19:54:09.989Z,100055.70
2019-01-14T19:56:30.023Z,100060.49
2019-01-14T19:59:53.236Z,100073.58
2019-01-14T20:02:36.892Z,100074.83
2019-01-14T20:05:00.437Z,100078.75
2019-01-14T20:07:31.658Z,100076.58
2019-01-14T20:10:05.022Z,100076.17
2019-01-14T20:12:35.888Z,100082.75
2019-01-14T20:15:08.728Z,100079.23
2019-01-14T20:17:42.577Z,100086.94
2019-01-14T20:20:17.013Z,100086.52
2019-01-14T20:22:50.783Z,100095.29
2019-01-14T20:25:21.946Z,100094.56
2019-01-14T20:27:55.067Z,100098.48
2019-01-14T20:30:36.076Z,100097.36
2019-01-14T20:33:08.121Z,100098.73
2019-01-14T20:35:39.017Z,100100.20
2019-01-14T20:38:09.864Z,100106.34
2019-01-14T20:40:41.972Z,100098.69
2019-01-14T20:43:12.845Z,100104.38
2019-01-14T21:06:37.613Z,100128.10
2019-01-14T21:09:09.985Z,100120.27
2019-01-14T21:11:43.606Z,100136.37
2019-01-14T21:14:21.152Z,100133.30
2019-01-14T21:16:58.541Z,100126.76
2019-01-14T21:19:30.854Z,100132.84
2019-01-14T21:22:07.012Z,100138.55
2019-01-14T21:24:41.180Z,100131.61
2019-01-14T21:27:18.975Z,100129.79
2019-01-14T21:29:54.336Z,100129.77
2019-01-14T21:32:28.314Z,100141.10
2019-01-14T21:35:10.553Z,100131.58
2019-01-14T21:37:51.205Z,100144.59
2019-01-14T21:40:48.106Z,100141.16
2019-01-14T21:46:04.066Z,100145.86
2019-01-14T21:47:39.608Z,100140.33
2019-01-14T21:52:10.954Z,100156.31
2019-01-14T21:54:42.030Z,100144.97
2019-01-14T21:57:15.984Z,100155.48
2019-01-14T21:59:53.822Z,100159.72
2019-01-14T22:02:30.607Z,100156.77
2019-01-14T22:05:01.573Z,100157.28
2019-01-14T22:07:39.541Z,100153.83
2019-01-14T22:10:23.625Z,100154.20
2019-01-14T22:12:54.370Z,100155.58
2019-01-14T22:15:25.551Z,100158.99
2019-01-14T22:17:59.540Z,100159.48
2019-01-14T22:20:39.117Z,100155.06
2019-01-14T22:23:11.876Z,100154.19
2019-01-14T22:25:43.008Z,100154.68
2019-01-14T22:28:15.658Z,100160.70
2019-01-14T22:30:57.931Z,100151.95
2019-01-14T22:33:30.866Z,100165.89
2019-01-14T22:36:04.244Z,100156.77
2019-01-14T22:38:35.339Z,100155.49
2019-01-14T22:41:07.279Z,100167.73
2019-01-14T22:43:43.115Z,100165.94
2019-01-14T22:46:13.752Z,100167.67
2019-01-14T22:48:53.661Z,100166.34
2019-01-14T22:51:25.953Z,100162.87
2019-01-14T22:54:02.232Z,100174.96
2019-01-14T22:56:32.941Z,100174.05
2019-01-14T22:59:16.244Z,100169.31
2019-01-14T23:01:53.887Z,100178.34
2019-01-14T23:04:30.215Z,100169.13
2019-01-14T23:07:10.419Z,100169.45
2019-01-14T23:09:47.593Z,100174.05
2019-01-14T23:12:27.239Z,100170.24
2019-01-14T23:14:59.203Z,100177.94
2019-01-14T23:17:40.969Z,100190.61
2019-01-14T23:20:13.852Z,100189.30
2019-01-14T23:22:45.003Z,100184.88
2019-01-14T23:25:18.363Z,100182.75
2019-01-14T23:27:50.959Z,100183.42
2019-01-14T23:30:25.635Z,100172.52
2019-01-14T23:32:59.515Z,100185.03
2019-01-14T23:35:34.193Z,100179.51
2019-01-14T23:38:08.099Z,100189.54
2019-01-14T23:40:38.887Z,100181.30
2019-01-14T23:43:21.013Z,100188.73
2019-01-14T23:45:52.802Z,100193.55
2019-01-14T23:48:25.578Z,100189.18
2019-01-14T23:50:58.827Z,100190.44
2019-01-14T23:53:31.664Z,100190.89
2019-01-14T23:56:03.131Z,100193.53
2019-01-14T23:58:37.170Z,100186.59
